Time;durP1;ratioP1;P1;durP2;ratioP2;P2;SDS_P1;SDS_P2;PMS_P1;PMS_P2;Temp;Humidity;BMP_temperature;BMP_pressure;BME280_temperature;BME280_humidity;BME280_pressure;Samples;Min_cycle;Max_cycle;Signal;HPM_P1;HPM_P2
2023/03/22 00:01:18;;;;;;;0.20;0.20;;;;;;;16.28;59.67;100935.50;5051155;28;20033;-69
2023/03/22 00:03:44;;;;;;;0.10;0.10;;;;;;;16.21;59.12;100942.25;5050641;28;20118;-70
2023/03/22 00:06:09;;;;;;;0.20;0.20;;;;;;;16.47;59.21;100933.22;5050610;28;20084;-70
2023/03/22 00:08:35;;;;;;;0.25;0.25;;;;;;;16.11;60.07;100940.28;5050733;28;20492;-70
2023/03/22 00:11:02;;;;;;;0.30;0.30;;;;;;;16.60;58.33;100930.88;5050669;28;20147;-70
2023/03/22 00:13:27;;;;;;;0.20;0.20;;;;;;;16.39;58.82;100929.06;5051198;28;20036;-70
2023/03/22 00:15:54;;;;;;;0.30;0.30;;;;;;;15.81;60.41;100937.28;5032723;28;20033;-70
2023/03/22 00:18:20;;;;;;;0.20;0.20;;;;;;;16.11;59.46;100934.84;5050703;28;20029;-70
2023/03/22 00:20:49;;;;;;;0.20;0.20;;;;;;;16.27;59.32;100938.50;5050611;28;20052;-70
2023/03/22 00:23:15;;;;;;;0.20;0.20;;;;;;;16.64;57.83;100932.00;5050507;28;20044;-70
2023/03/22 00:25:43;;;;;;;0.20;0.20;;;;;;;16.15;59.80;100922.41;5050939;28;20086;-69
2023/03/22 00:28:08;;;;;;;0.20;0.20;;;;;;;16.31;58.76;100923.34;5050937;28;20033;-70
2023/03/22 00:30:34;;;;;;;0.20;0.20;;;;;;;16.35;58.50;100917.09;5050459;28;20040;-71
2023/03/22 00:32:59;;;;;;;0.20;0.20;;;;;;;16.38;58.33;100922.03;5050592;28;20040;-69
2023/03/22 00:35:25;;;;;;;0.20;0.20;;;;;;;16.35;57.99;100921.75;5034463;28;20497;-70
2023/03/22 00:37:50;;;;;;;0.20;0.20;;;;;;;16.29;58.37;100918.19;5034848;28;20029;-69
2023/03/22 00:40:16;;;;;;;0.20;0.20;;;;;;;16.21;58.49;100913.25;5050887;28;20021;-69
2023/03/22 00:42:42;;;;;;;0.30;0.30;;;;;;;16.17;59.02;100905.88;5050532;28;20035;-70
2023/03/22 00:45:09;;;;;;;0.20;0.20;;;;;;;16.21;59.02;100913.25;5050542;28;20575;-71
2023/03/22 00:47:35;;;;;;;0.25;0.25;;;;;;;16.33;58.24;100907.63;5050035;28;20053;-70
2023/03/22 00:50:01;;;;;;;0.20;0.20;;;;;;;16.25;59.01;100903.50;5050536;28;20064;-70
2023/03/22 00:52:27;;;;;;;0.25;0.25;;;;;;;16.06;58.85;100901.47;5051044;28;20047;-69
2023/03/22 00:54:53;;;;;;;0.35;0.35;;;;;;;16.43;58.10;100904.97;5050267;28;20047;-70
2023/03/22 00:57:19;;;;;;;0.25;0.25;;;;;;;17.22;55.45;100900.19;5050176;28;20037;-70
2023/03/22 00:59:44;;;;;;;0.20;0.20;;;;;;;16.25;58.08;100898.09;5050239;28;20408;-70
2023/03/22 01:02:13;;;;;;;0.30;0.30;;;;;;;17.22;55.06;100890.16;5054092;28;20428;-71
2023/03/22 01:04:45;;;;;;;0.20;0.20;;;;;;;17.13;55.27;100889.03;5053696;28;20451;-70
2023/03/22 01:07:16;;;;;;;0.20;0.20;;;;;;;16.97;55.96;100890.06;5054456;28;20021;-70
2023/03/22 01:09:43;;;;;;;0.30;0.30;;;;;;;17.24;54.88;100895.31;5053803;28;20041;-70
2023/03/22 01:12:10;;;;;;;0.10;0.10;;;;;;;17.32;55.01;100886.63;5054336;28;20040;-70
2023/03/22 01:14:35;;;;;;;0.28;0.28;;;;;;;16.57;57.29;100877.13;5054067;28;20447;-70
2023/03/22 01:17:01;;;;;;;0.20;0.20;;;;;;;17.53;53.72;100880.22;5053837;28;20040;-69
2023/03/22 01:19:26;;;;;;;0.40;0.40;;;;;;;17.62;53.98;100884.00;5053794;28;20021;-70
2023/03/22 01:21:52;;;;;;;0.30;0.30;;;;;;;18.04;52.81;100873.66;5053595;28;20091;-70
2023/03/22 01:24:18;;;;;;;0.20;0.20;;;;;;;17.30;55.36;100869.78;5053599;28;20467;-70
2023/03/22 01:26:43;;;;;;;0.30;0.30;;;;;;;17.37;54.53;100875.81;5053599;28;20025;-70
2023/03/22 01:29:09;;;;;;;0.30;0.30;;;;;;;17.19;55.19;100870.84;5053631;28;20033;-69
2023/03/22 01:31:34;;;;;;;0.20;0.20;;;;;;;16.65;57.48;100867.66;5053809;28;20053;-70
2023/03/22 01:34:00;;;;;;;0.10;0.10;;;;;;;17.11;55.38;100864.06;5053431;28;20020;-70
2023/03/22 01:36:25;;;;;;;0.30;0.30;;;;;;;17.34;55.03;100869.00;5053509;28;20040;-70
2023/03/22 01:38:50;;;;;;;0.20;0.20;;;;;;;17.52;54.45;100857.66;5053473;28;20385;-70
2023/03/22 01:41:16;;;;;;;0.20;0.20;;;;;;;17.41;55.00;100861.38;5053379;28;20048;-69
2023/03/22 01:43:42;;;;;;;0.10;0.10;;;;;;;17.20;55.61;100854.28;5053511;28;20089;-71
2023/03/22 01:46:07;;;;;;;0.10;0.10;;;;;;;16.63;56.71;100840.81;5053843;28;20139;-71
2023/03/22 01:48:40;;;;;;;0.20;0.20;;;;;;;17.55;54.00;100848.94;5052992;28;20091;-70
2023/03/22 01:51:12;;;;;;;0.17;0.17;;;;;;;17.59;54.31;100841.09;5053435;28;20033;-70
2023/03/22 01:53:51;;;;;;;0.20;0.20;;;;;;;17.86;53.53;100832.63;5052896;28;20488;-70
2023/03/22 01:56:22;;;;;;;0.25;0.25;;;;;;;17.89;53.38;100826.63;5052890;28;20090;-70
2023/03/22 01:58:49;;;;;;;;;;;;;;;18.60;51.33;100817.25;5051800;28;20050;-70
2023/03/22 02:01:15;;;;;;;0.20;0.20;;;;;;;17.98;53.41;100812.25;5045702;28;19920;-70
2023/03/22 02:04:00;;;;;;;0.20;0.20;;;;;;;18.33;51.80;100814.88;5050635;28;20386;-70
2023/03/22 02:06:28;;;;;;;0.20;0.20;;;;;;;17.51;53.85;100811.72;5051087;28;20033;-70
2023/03/22 02:08:56;;;;;;;0.30;0.30;;;;;;;17.01;56.02;100815.16;5032580;28;20496;-70
2023/03/22 02:11:29;;;;;;;0.30;0.30;;;;;;;18.23;52.73;100804.03;5044872;28;20345;-70
2023/03/22 02:14:37;;;;;;;0.10;0.10;;;;;;;17.10;56.15;100799.97;5044696;28;20385;-70
2023/03/22 02:17:21;;;;;;;0.20;0.20;;;;;;;17.40;55.41;100800.00;5037429;28;20063;-70
2023/03/22 02:20:31;;;;;;;0.30;0.30;;;;;;;17.76;53.35;100789.97;5045094;28;20025;-70
2023/03/22 02:23:46;;;;;;;0.20;0.20;;;;;;;17.74;54.66;100792.16;4949356;29;20039;-71
2023/03/22 02:26:17;;;;;;;0.10;0.10;;;;;;;17.55;54.67;100785.66;4947873;29;20142;-69
2023/03/22 02:28:55;;;;;;;0.20;0.20;;;;;;;17.75;53.77;100782.09;4950180;29;20037;-69
2023/03/22 02:31:29;;;;;;;0.30;0.30;;;;;;;17.31;54.92;100773.66;4949408;29;20035;-70
2023/03/22 02:34:19;;;;;;;0.20;0.20;;;;;;;17.47;54.72;100764.44;4945814;29;20051;-70
2023/03/22 02:37:12;;;;;;;0.20;0.20;;;;;;;17.69;53.32;100759.53;4944477;29;20058;-70
2023/03/22 02:40:05;;;;;;;0.30;0.30;;;;;;;17.39;54.57;100767.69;4949375;29;20055;-70
2023/03/22 02:42:51;;;;;;;0.30;0.30;;;;;;;17.11;56.12;100762.75;4916534;29;20044;-70
2023/03/22 02:45:26;;;;;;;0.40;0.40;;;;;;;17.51;54.72;100758.19;4905418;29;20048;-70
2023/03/22 02:48:14;;;;;;;0.40;0.40;;;;;;;16.81;57.06;100759.97;4911454;29;20040;-70
2023/03/22 02:50:51;;;;;;;0.25;0.25;;;;;;;16.57;56.62;100754.22;4911128;29;20044;-70
2023/03/22 02:53:21;;;;;;;0.30;0.30;;;;;;;16.77;56.61;100756.19;4911202;29;20043;-71
2023/03/22 02:56:13;;;;;;;;;;;;;;;17.45;54.64;100737.50;4915809;28;20051;-71
2023/03/22 02:58:47;;;;;;;0.25;0.25;;;;;;;17.47;54.48;100734.53;4977789;28;19921;-69
2023/03/22 03:01:24;;;;;;;0.25;0.25;;;;;;;17.04;55.44;100730.44;4987905;28;20034;-69
2023/03/22 03:03:55;;;;;;;0.10;0.10;;;;;;;17.36;54.79;100732.91;4987859;28;20042;-70
2023/03/22 03:06:24;;;;;;;0.13;0.13;;;;;;;17.15;55.13;100732.09;4988452;28;20034;-69
2023/03/22 03:08:52;;;;;;;0.20;0.20;;;;;;;16.61;56.21;100728.19;4987937;28;20034;-70
2023/03/22 03:11:19;;;;;;;0.25;0.25;;;;;;;17.12;55.02;100723.69;4981629;28;20046;-69
2023/03/22 03:13:47;;;;;;;0.30;0.30;;;;;;;16.53;57.17;100718.69;4987440;28;20124;-70
2023/03/22 03:16:16;;;;;;;0.30;0.30;;;;;;;16.76;56.71;100719.28;4981664;28;20121;-69
2023/03/22 03:18:59;;;;;;;0.20;0.20;;;;;;;16.56;57.15;100712.72;4993264;28;20049;-71
2023/03/22 03:21:41;;;;;;;0.30;0.30;;;;;;;16.93;56.33;100708.97;5049485;28;20044;-70
2023/03/22 03:24:06;;;;;;;0.20;0.20;;;;;;;17.29;54.81;100706.03;5049410;28;20480;-70
2023/03/22 03:26:42;;;;;;;0.20;0.20;;;;;;;17.63;54.05;100698.09;5049397;28;20040;-70
2023/03/22 03:29:13;;;;;;;0.20;0.20;;;;;;;17.41;54.46;100700.31;5049461;28;20090;-70
2023/03/22 03:31:49;;;;;;;0.20;0.20;;;;;;;17.07;55.81;100697.34;5049188;28;20303;-70
2023/03/22 03:34:25;;;;;;;0.20;0.20;;;;;;;16.99;55.95;100702.47;5045934;28;20033;-71
2023/03/22 03:37:12;;;;;;;0.20;0.20;;;;;;;17.29;55.21;100697.88;5049401;28;20045;-70
2023/03/22 03:39:43;;;;;;;0.20;0.20;;;;;;;17.15;55.53;100699.50;5049753;28;20033;-70
2023/03/22 03:42:13;;;;;;;0.30;0.30;;;;;;;17.18;56.14;100695.41;5049612;28;20500;-70
2023/03/22 03:44:39;;;;;;;0.20;0.20;;;;;;;16.74;58.05;100697.03;5049750;28;20425;-70
2023/03/22 03:47:07;;;;;;;0.20;0.20;;;;;;;16.40;58.99;100705.59;5044542;28;20049;-70
2023/03/22 03:49:33;;;;;;;0.20;0.20;;;;;;;16.04;60.13;100701.09;5047419;28;20555;-69
2023/03/22 03:51:58;;;;;;;0.15;0.15;;;;;;;16.83;58.15;100706.25;5049649;28;20017;-71
2023/03/22 03:54:24;;;;;;;0.20;0.20;;;;;;;16.59;58.82;100700.50;5048965;28;20303;-70
2023/03/22 03:56:50;;;;;;;0.20;0.20;;;;;;;16.91;57.57;100703.00;5048683;28;20041;-70
2023/03/22 03:59:17;;;;;;;0.32;0.32;;;;;;;16.64;58.49;100697.81;5048954;28;20055;-71
2023/03/22 04:01:52;;;;;;;0.20;0.20;;;;;;;16.58;58.52;100694.28;5043122;28;20028;-69
2023/03/22 04:04:27;;;;;;;0.30;0.30;;;;;;;16.27;60.56;100708.81;5049769;28;20119;-71
2023/03/22 04:06:57;;;;;;;0.20;0.20;;;;;;;16.76;59.09;100692.97;5049152;28;20028;-68
2023/03/22 04:09:29;;;;;;;0.30;0.30;;;;;;;16.13;60.47;100690.59;5043131;28;20453;-70
2023/03/22 04:11:55;;;;;;;0.20;0.20;;;;;;;16.83;58.74;100693.50;5049538;28;20037;-71
2023/03/22 04:14:22;;;;;;;0.22;0.22;;;;;;;16.79;59.25;100694.31;5049027;28;20041;-71
2023/03/22 04:16:47;;;;;;;0.22;0.22;;;;;;;16.98;58.24;100698.16;5048931;28;20059;-69
2023/03/22 04:19:13;;;;;;;0.13;0.13;;;;;;;17.26;57.58;100694.88;5049307;28;20029;-70
2023/03/22 04:21:39;;;;;;;0.30;0.30;;;;;;;16.75;58.57;100696.75;5048948;28;20036;-70
2023/03/22 04:24:05;;;;;;;0.38;0.38;;;;;;;17.11;57.61;100692.16;5048726;28;20037;-72
2023/03/22 04:26:30;;;;;;;0.20;0.20;;;;;;;17.02;58.08;100699.22;5049242;28;20033;-70
2023/03/22 04:28:57;;;;;;;0.20;0.20;;;;;;;17.39;57.89;100694.34;5048993;28;20374;-69
2023/03/22 04:31:23;;;;;;;0.30;0.30;;;;;;;16.62;60.84;100695.38;5048809;28;20033;-70
2023/03/22 04:33:53;;;;;;;0.20;0.20;;;;;;;17.04;58.69;100694.34;5046762;28;20075;-70
2023/03/22 04:36:20;;;;;;;0.20;0.20;;;;;;;17.03;59.21;100690.81;5044911;28;20037;-70
2023/03/22 04:38:45;;;;;;;0.30;0.30;;;;;;;16.51;61.00;100685.56;5052904;28;20056;-70
2023/03/22 04:41:11;;;;;;;0.38;0.38;;;;;;;17.16;58.40;100686.75;5052675;28;20043;-70
2023/03/22 04:43:38;;;;;;;0.32;0.32;;;;;;;17.02;59.27;100682.94;5052989;28;20036;-70
2023/03/22 04:46:05;;;;;;;0.30;0.30;;;;;;;17.30;57.89;100691.34;5053194;28;20063;-69
2023/03/22 04:48:30;;;;;;;0.10;0.10;;;;;;;16.97;59.84;100693.78;5052827;28;20040;-70
2023/03/22 04:50:56;;;;;;;0.20;0.20;;;;;;;17.44;58.36;100687.00;5053206;28;20481;-70
2023/03/22 04:53:26;;;;;;;0.40;0.40;;;;;;;16.72;60.11;100688.34;5052631;28;20106;-69
2023/03/22 04:55:55;;;;;;;0.20;0.20;;;;;;;17.37;57.96;100680.22;5052001;28;20041;-70
2023/03/22 04:58:22;;;;;;;0.20;0.20;;;;;;;16.56;61.08;100676.63;5052954;28;20140;-71
2023/03/22 05:00:51;;;;;;;0.17;0.17;;;;;;;17.33;57.95;100663.66;5051880;28;20041;-71
2023/03/22 05:03:18;;;;;;;0.10;0.10;;;;;;;17.42;57.82;100667.44;5047870;28;20037;-70
2023/03/22 05:05:58;;;;;;;0.25;0.25;;;;;;;16.90;59.24;100658.78;5046602;28;20047;-71
2023/03/22 05:08:24;;;;;;;0.30;0.30;;;;;;;17.01;59.56;100665.00;5047087;28;20045;-71
2023/03/22 05:10:51;;;;;;;0.20;0.20;;;;;;;17.77;56.85;100654.88;5033562;28;20083;-69
2023/03/22 05:13:17;;;;;;;0.38;0.38;;;;;;;17.91;56.56;100650.47;5052811;28;20028;-70
2023/03/22 05:15:42;;;;;;;0.20;0.20;;;;;;;18.03;56.21;100643.63;5052283;28;20087;-70
2023/03/22 05:18:08;;;;;;;0.30;0.30;;;;;;;17.03;58.82;100646.56;5051573;28;20029;-70
2023/03/22 05:20:34;;;;;;;0.30;0.30;;;;;;;17.27;59.27;100636.75;5044400;28;20512;-71
2023/03/22 05:23:01;;;;;;;0.10;0.10;;;;;;;17.83;57.02;100630.09;5052063;28;20032;-70
2023/03/22 05:25:27;;;;;;;0.20;0.20;;;;;;;17.26;59.42;100635.94;5053157;28;20066;-70
2023/03/22 05:27:53;;;;;;;0.20;0.20;;;;;;;16.95;60.50;100628.09;5052008;28;20021;-70
2023/03/22 05:30:18;;;;;;;0.20;0.20;;;;;;;16.43;62.14;100633.75;5051501;28;20037;-70
2023/03/22 05:32:44;;;;;;;0.20;0.20;;;;;;;17.09;59.93;100632.72;5052910;28;20369;-71
2023/03/22 05:35:10;;;;;;;0.20;0.20;;;;;;;17.12;59.64;100634.88;5049376;28;20068;-70
2023/03/22 05:37:37;;;;;;;0.20;0.20;;;;;;;17.91;57.11;100626.00;5048551;28;20030;-70
2023/03/22 05:40:04;;;;;;;0.28;0.28;;;;;;;17.59;57.07;100620.16;5049593;28;20013;-71
2023/03/22 05:42:30;;;;;;;0.30;0.30;;;;;;;17.26;59.42;100629.69;5051778;28;20040;-70
2023/03/22 05:44:56;;;;;;;0.20;0.20;;;;;;;16.61;61.22;100633.22;5051416;28;20036;-70
2023/03/22 05:47:21;;;;;;;0.20;0.20;;;;;;;17.12;59.33;100644.94;5051724;28;20073;-71
2023/03/22 05:49:46;;;;;;;0.15;0.15;;;;;;;17.43;58.70;100631.00;5043918;28;20021;-71
2023/03/22 05:52:12;;;;;;;0.25;0.25;;;;;;;17.48;58.48;100628.31;5051400;28;20021;-72
2023/03/22 05:54:37;;;;;;;0.17;0.17;;;;;;;17.53;58.18;100619.34;5044833;28;20037;-70
2023/03/22 05:57:03;;;;;;;0.30;0.30;;;;;;;17.99;56.86;100634.41;5050134;28;20489;-70
2023/03/22 05:59:28;;;;;;;0.20;0.20;;;;;;;17.55;58.11;100619.91;5051098;28;20075;-70
2023/03/22 06:01:53;;;;;;;0.20;0.20;;;;;;;17.36;59.10;100624.25;5044707;28;20501;-71
2023/03/22 06:04:19;;;;;;;0.20;0.20;;;;;;;17.24;59.43;100621.00;5051887;28;20032;-71
2023/03/22 06:06:45;;;;;;;0.13;0.13;;;;;;;17.35;59.10;100628.88;5051989;28;20035;-71
2023/03/22 06:09:11;;;;;;;0.20;0.20;;;;;;;17.71;57.67;100626.09;5050889;28;20041;-70
2023/03/22 06:11:36;;;;;;;0.17;0.17;;;;;;;17.30;58.96;100620.72;5051177;28;20044;-71
2023/03/22 06:14:01;;;;;;;0.20;0.20;;;;;;;17.13;59.47;100617.50;5046319;28;20033;-70
2023/03/22 06:16:27;;;;;;;0.10;0.10;;;;;;;17.31;58.38;100616.13;5050627;28;20137;-71
2023/03/22 06:18:52;;;;;;;0.20;0.20;;;;;;;17.71;57.69;100620.66;5050759;28;20041;-70
2023/03/22 06:21:17;;;;;;;0.28;0.28;;;;;;;17.60;57.23;100600.84;5050526;28;20045;-69
2023/03/22 06:23:43;;;;;;;0.20;0.20;;;;;;;17.93;56.89;100602.88;5050910;28;20044;-69
2023/03/22 06:26:10;;;;;;;0.30;0.30;;;;;;;17.60;57.68;100595.41;5051134;28;20467;-70
2023/03/22 06:28:36;;;;;;;0.20;0.20;;;;;;;17.20;58.84;100599.00;5050557;28;20044;-70
2023/03/22 06:31:06;;;;;;;0.20;0.20;;;;;;;17.83;57.42;100604.81;5051054;28;20070;-71
2023/03/22 06:33:32;;;;;;;0.10;0.10;;;;;;;17.07;59.32;100606.91;5049991;28;20037;-71
2023/03/22 06:35:59;;;;;;;0.25;0.25;;;;;;;17.36;58.92;100599.78;5048331;28;20036;-71
2023/03/22 06:38:25;;;;;;;0.30;0.30;;;;;;;17.33;58.84;100609.31;5050802;28;20033;-70
2023/03/22 06:40:50;;;;;;;0.20;0.20;;;;;;;17.41;59.00;100607.94;5038238;28;20110;-71
2023/03/22 06:43:15;;;;;;;0.13;0.13;;;;;;;16.65;61.31;100616.16;5050745;28;20025;-70
2023/03/22 06:45:41;;;;;;;0.20;0.20;;;;;;;17.33;60.15;100605.78;5021501;28;20041;-70
2023/03/22 06:48:06;;;;;;;0.22;0.22;;;;;;;17.52;58.55;100612.28;5047741;28;20188;-72
2023/03/22 06:50:32;;;;;;;0.20;0.20;;;;;;;18.23;55.86;100610.06;5050356;28;20033;-69
2023/03/22 06:52:58;;;;;;;0.13;0.13;;;;;;;17.85;56.76;100598.03;5050333;28;20280;-68
2023/03/22 06:55:23;;;;;;;0.20;0.20;;;;;;;17.09;58.99;100607.44;5050146;28;20031;-70
2023/03/22 06:57:49;;;;;;;0.20;0.20;;;;;;;17.52;57.39;100593.25;5049600;28;20040;-70
2023/03/22 07:00:15;;;;;;;0.20;0.20;;;;;;;17.58;57.40;100594.88;5050043;28;20080;-70
2023/03/22 07:02:40;;;;;;;0.10;0.10;;;;;;;17.64;57.17;100577.47;5032152;28;20067;-70
2023/03/22 07:05:06;;;;;;;0.20;0.20;;;;;;;18.00;56.33;100589.00;5050351;28;20578;-70
2023/03/22 07:07:32;;;;;;;0.10;0.10;;;;;;;17.92;56.40;100601.28;5049293;28;20024;-68
2023/03/22 07:09:57;;;;;;;0.20;0.20;;;;;;;17.27;58.22;100601.44;5043476;28;20028;-71
2023/03/22 07:12:23;;;;;;;0.15;0.15;;;;;;;17.51;58.53;100594.38;5049782;28;20037;-70
2023/03/22 07:14:48;;;;;;;0.20;0.20;;;;;;;17.46;58.34;100602.47;5040838;28;20040;-71
2023/03/22 07:17:13;;;;;;;0.20;0.20;;;;;;;16.98;59.36;100616.69;5042198;28;20463;-70
2023/03/22 07:19:41;;;;;;;0.15;0.15;;;;;;;17.52;57.82;100604.94;5049062;28;20033;-70
2023/03/22 07:22:06;;;;;;;0.20;0.20;;;;;;;17.09;58.73;100602.84;5050247;28;20078;-71
2023/03/22 07:24:32;;;;;;;0.22;0.22;;;;;;;17.84;56.54;100607.28;5049470;28;20431;-70
2023/03/22 07:26:57;;;;;;;0.20;0.20;;;;;;;16.81;59.89;100591.72;5049904;28;20493;-71
2023/03/22 07:29:22;;;;;;;0.20;0.20;;;;;;;16.63;58.94;100599.31;5049246;28;20041;-71
2023/03/22 07:31:48;;;;;;;0.20;0.20;;;;;;;16.74;59.15;100602.88;5048725;28;20120;-70
2023/03/22 07:34:13;;;;;;;0.17;0.17;;;;;;;17.22;57.16;100594.13;5044957;28;20024;-70
2023/03/22 07:36:39;;;;;;;0.30;0.30;;;;;;;16.78;58.79;100606.66;5049707;28;20102;-70
2023/03/22 07:39:05;;;;;;;0.20;0.20;;;;;;;17.56;56.93;100602.50;5049720;28;20220;-70
2023/03/22 07:41:30;;;;;;;0.20;0.20;;;;;;;17.29;56.85;100597.38;5045650;28;20381;-70
2023/03/22 07:43:56;;;;;;;0.30;0.30;;;;;;;17.00;57.94;100606.38;5049274;28;20040;-71
2023/03/22 07:46:21;;;;;;;0.20;0.20;;;;;;;17.04;57.50;100602.03;5043985;28;20028;-70
2023/03/22 07:48:46;;;;;;;0.30;0.30;;;;;;;17.34;56.31;100594.63;5049245;28;20043;-70
2023/03/22 07:51:12;;;;;;;0.20;0.20;;;;;;;17.96;56.03;100596.06;5049003;28;20033;-71
2023/03/22 07:53:37;;;;;;;0.13;0.13;;;;;;;17.68;55.48;100603.00;5037200;28;20548;-71
2023/03/22 07:56:03;;;;;;;0.30;0.30;;;;;;;17.09;57.47;100596.59;5049260;28;20447;-70
2023/03/22 07:58:29;;;;;;;0.20;0.20;;;;;;;17.42;56.13;100602.22;5049306;28;20037;-71
2023/03/22 08:00:54;;;;;;;0.10;0.10;;;;;;;17.79;55.71;100595.63;5041498;28;20909;-71
2023/03/22 08:03:21;;;;;;;0.20;0.20;;;;;;;17.48;56.20;100601.16;5047585;28;20048;-70
2023/03/22 08:05:47;;;;;;;0.20;0.20;;;;;;;16.84;58.00;100602.03;5046095;28;20032;-70
2023/03/22 08:08:13;;;;;;;0.20;0.20;;;;;;;17.02;57.05;100609.66;5046779;28;20045;-70
2023/03/22 08:10:38;;;;;;;0.22;0.22;;;;;;;16.41;58.36;100606.06;5047033;28;20388;-69
2023/03/22 08:13:04;;;;;;;0.20;0.20;;;;;;;16.68;58.19;100603.94;5038118;28;20044;-71
2023/03/22 08:15:29;;;;;;;0.28;0.28;;;;;;;17.17;56.97;100602.28;5048766;28;20036;-70
2023/03/22 08:17:56;;;;;;;0.20;0.20;;;;;;;16.66;57.90;100606.13;5048283;28;20040;-70
2023/03/22 08:20:24;;;;;;;0.30;0.30;;;;;;;16.70;57.95;100601.78;5048269;28;20493;-72
2023/03/22 08:22:50;;;;;;;0.20;0.20;;;;;;;17.08;56.89;100587.63;5048239;28;20074;-69
2023/03/22 08:25:15;;;;;;;0.20;0.20;;;;;;;17.84;54.47;100590.97;5049074;28;20071;-71
2023/03/22 08:27:41;;;;;;;0.20;0.17;;;;;;;18.16;53.31;100582.38;5046322;28;20040;-71
2023/03/22 08:30:07;;;;;;;0.13;0.13;;;;;;;17.38;55.23;100587.56;5035366;28;20051;-69
2023/03/22 08:32:33;;;;;;;0.20;0.20;;;;;;;17.50;55.33;100585.41;5045239;28;20033;-70
2023/03/22 08:34:58;;;;;;;0.20;0.20;;;;;;;17.37;55.93;100579.69;5046315;28;20489;-70
2023/03/22 08:37:23;;;;;;;0.20;0.20;;;;;;;17.29;55.91;100580.25;5046395;28;20041;-69
2023/03/22 08:39:49;;;;;;;0.20;0.20;;;;;;;17.33;56.27;100598.47;5047371;28;20033;-71
2023/03/22 08:42:14;;;;;;;0.20;0.20;;;;;;;18.01;54.08;100590.59;5048110;28;20045;-70
2023/03/22 08:44:39;;;;;;;0.30;0.30;;;;;;;18.13;54.22;100589.19;5046844;28;20053;-69
2023/03/22 08:47:05;;;;;;;0.20;0.20;;;;;;;17.84;54.12;100585.53;5047826;28;20037;-71
2023/03/22 08:49:31;;;;;;;0.22;0.22;;;;;;;18.18;53.23;100586.41;5048037;28;20087;-69
2023/03/22 08:51:56;;;;;;;0.10;0.10;;;;;;;18.01;53.81;100580.53;5046547;28;20041;-70
2023/03/22 08:54:22;;;;;;;0.10;0.10;;;;;;;17.24;54.62;100589.22;5044515;28;20040;-71
2023/03/22 08:56:49;;;;;;;0.20;0.20;;;;;;;17.24;55.23;100588.41;5048332;28;20044;-71
2023/03/22 08:59:14;;;;;;;0.17;0.17;;;;;;;17.09;55.99;100591.97;5045530;28;20048;-70
2023/03/22 09:01:39;;;;;;;0.13;0.13;;;;;;;17.33;55.06;100575.91;5046532;28;20075;-70
2023/03/22 09:04:05;;;;;;;0.20;0.20;;;;;;;18.00;53.31;100580.84;5048135;28;20017;-70
2023/03/22 09:06:31;;;;;;;0.20;0.20;;;;;;;17.11;55.36;100569.97;5047573;28;20037;-69
2023/03/22 09:08:57;;;;;;;0.20;0.20;;;;;;;17.29;54.82;100569.41;5045917;28;20029;-70
2023/03/22 09:11:23;;;;;;;0.20;0.20;;;;;;;17.17;54.97;100583.28;5043596;28;20069;-70
2023/03/22 09:13:49;;;;;;;0.10;0.10;;;;;;;17.81;54.20;100571.69;5035450;28;20122;-70
2023/03/22 09:16:15;;;;;;;0.20;0.20;;;;;;;17.21;54.84;100597.13;5048826;28;20465;-70
2023/03/22 09:18:41;;;;;;;0.30;0.30;;;;;;;17.26;55.20;100581.63;5048457;28;20658;-71
2023/03/22 09:21:07;;;;;;;0.20;0.20;;;;;;;17.86;53.41;100579.81;5048603;28;20036;-70
2023/03/22 09:23:36;;;;;;;0.20;0.20;;;;;;;17.03;55.89;100576.78;5051742;28;20068;-70
2023/03/22 09:26:07;;;;;;;0.20;0.20;;;;;;;17.29;54.14;100564.78;5051971;28;20040;-71
2023/03/22 09:28:33;;;;;;;0.20;0.20;;;;;;;17.89;53.57;100574.63;5051952;28;20036;-69
2023/03/22 09:31:07;;;;;;;0.10;0.10;;;;;;;17.64;54.33;100568.50;5052142;28;20053;-70
2023/03/22 09:33:34;;;;;;;0.15;0.15;;;;;;;16.97;55.17;100575.16;5051614;28;20029;-70
2023/03/22 09:36:00;;;;;;;0.20;0.20;;;;;;;17.23;54.96;100570.50;5048482;28;20040;-70
2023/03/22 09:38:26;;;;;;;0.20;0.20;;;;;;;16.78;55.59;100584.13;5051849;28;20445;-70
2023/03/22 09:40:59;;;;;;;0.20;0.20;;;;;;;17.88;53.58;100581.16;5052099;28;20044;-70
2023/03/22 09:43:29;;;;;;;0.30;0.30;;;;;;;16.74;56.26;100588.47;5052255;28;20488;-70
2023/03/22 09:45:54;;;;;;;0.20;0.20;;;;;;;17.10;54.97;100581.94;5033866;28;20439;-71
2023/03/22 09:48:26;;;;;;;0.20;0.20;;;;;;;16.95;55.78;100581.94;5052051;28;20029;-69
2023/03/22 09:50:53;;;;;;;0.20;0.20;;;;;;;16.99;55.14;100574.88;5052142;28;20059;-69
2023/03/22 09:53:21;;;;;;;0.20;0.20;;;;;;;17.26;54.28;100583.50;5051766;28;20442;-71
2023/03/22 09:55:59;;;;;;;0.10;0.10;;;;;;;17.17;54.90;100574.31;5051466;28;20025;-68
2023/03/22 09:58:49;;;;;;;0.20;0.20;;;;;;;18.20;51.77;100575.28;5052630;28;20072;-69
2023/03/22 10:01:38;;;;;;;0.20;0.20;;;;;;;16.92;55.83;100590.66;5047551;28;20553;-70
2023/03/22 10:04:12;;;;;;;0.20;0.20;;;;;;;16.22;57.77;100608.47;5052132;28;20037;-70
2023/03/22 10:06:43;;;;;;;0.10;0.10;;;;;;;17.70;53.90;100572.81;5051255;28;20397;-70
2023/03/22 10:09:21;;;;;;;0.10;0.10;;;;;;;16.45;57.82;100586.25;5051575;28;20037;-70
2023/03/22 10:12:28;;;;;;;0.20;0.20;;;;;;;17.25;55.41;100590.06;5046012;28;20162;-70
2023/03/22 10:15:08;;;;;;;0.10;0.10;;;;;;;17.03;56.60;100578.69;5047930;28;20131;-70
2023/03/22 10:17:35;;;;;;;0.20;0.20;;;;;;;16.73;56.36;100578.72;5051504;28;20051;-71
2023/03/22 10:20:18;;;;;;;0.20;0.20;;;;;;;16.98;56.21;100575.97;5050737;28;20103;-70
2023/03/22 10:22:45;;;;;;;0.20;0.20;;;;;;;17.15;55.86;100581.91;5050824;28;20190;-71
2023/03/22 10:25:17;;;;;;;0.20;0.20;;;;;;;16.63;57.62;100577.63;5041802;28;20448;-70
2023/03/22 10:27:45;;;;;;;0.30;0.30;;;;;;;17.06;55.30;100562.66;5050725;28;20035;-70
2023/03/22 10:30:23;;;;;;;0.20;0.20;;;;;;;16.93;56.90;100567.84;5051331;28;20098;-70
2023/03/22 10:33:04;;;;;;;0.20;0.20;;;;;;;16.95;56.31;100576.50;5043663;28;20406;-70
2023/03/22 10:35:30;;;;;;;;;;;;;;;17.12;57.09;100571.63;5050821;28;20037;-70
2023/03/22 10:37:59;;;;;;;0.17;0.17;;;;;;;16.43;59.52;100574.84;5044579;28;19939;-70
2023/03/22 10:40:31;;;;;;;0.20;0.20;;;;;;;16.97;58.09;100593.34;5051427;28;20412;-70
2023/03/22 10:43:04;;;;;;;0.30;0.30;;;;;;;16.66;59.93;100584.41;5051017;28;20131;-71
2023/03/22 10:45:33;;;;;;;0.30;0.30;;;;;;;16.81;59.43;100595.25;5050756;28;20044;-70
2023/03/22 10:48:10;;;;;;;0.28;0.28;;;;;;;16.90;59.88;100593.63;5050774;28;20033;-70
2023/03/22 10:50:38;;;;;;;0.20;0.20;;;;;;;16.58;59.97;100596.63;5051156;28;20115;-70
2023/03/22 10:53:22;;;;;;;0.20;0.20;;;;;;;17.19;59.80;100589.25;5032046;28;20063;-70
2023/03/22 10:55:47;;;;;;;0.20;0.20;;;;;;;16.27;62.23;100594.09;5050598;28;20366;-70
2023/03/22 10:58:15;;;;;;;0.10;0.10;;;;;;;16.80;61.98;100590.09;5046916;28;20074;-72
2023/03/22 11:00:48;;;;;;;0.20;0.20;;;;;;;17.10;60.47;100587.38;5049998;28;20120;-70
2023/03/22 11:03:37;;;;;;;0.20;0.20;;;;;;;16.09;64.04;100594.59;5050538;28;20068;-70
2023/03/22 11:06:05;;;;;;;0.20;0.20;;;;;;;15.75;65.72;100595.03;5050368;28;20064;-70
2023/03/22 11:08:55;;;;;;;0.10;0.10;;;;;;;16.73;62.68;100603.94;5044054;28;20051;-70
2023/03/22 11:11:26;;;;;;;0.20;0.20;;;;;;;17.17;61.23;100598.75;5050074;28;20102;-70
2023/03/22 11:14:05;;;;;;;0.17;0.17;;;;;;;16.69;63.31;100611.00;5049275;28;20651;-71
2023/03/22 11:16:39;;;;;;;0.25;0.25;;;;;;;16.89;62.44;100593.88;5045578;28;20045;-71
2023/03/22 11:19:05;;;;;;;0.17;0.17;;;;;;;16.81;62.02;100592.53;5043880;28;20052;-70
2023/03/22 11:21:32;;;;;;;0.10;0.10;;;;;;;17.73;59.84;100585.88;5045360;28;20300;-69
2023/03/22 11:24:03;;;;;;;0.20;0.20;;;;;;;16.92;62.75;100590.66;5043711;28;20545;-71
2023/03/22 11:26:32;;;;;;;0.20;0.20;;;;;;;16.65;64.37;100586.31;5046969;28;20047;-69
2023/03/22 11:29:10;;;;;;;0.20;0.20;;;;;;;17.27;61.37;100577.84;5043958;28;20048;-69
2023/03/22 11:31:57;;;;;;;0.20;0.20;;;;;;;17.57;61.84;100568.81;5044410;28;20041;-70
2023/03/22 11:34:26;;;;;;;0.30;0.30;;;;;;;18.34;59.31;100559.94;5044970;28;20032;-69
2023/03/22 11:36:58;;;;;;;0.30;0.30;;;;;;;17.31;61.15;100553.66;5049012;28;20041;-70